Time;durP1;ratioP1;P1;durP2;ratioP2;P2;SDS_P1;SDS_P2;PMS_P1;PMS_P2;Temp;Humidity;BMP_temperature;BMP_pressure;BME280_temperature;BME280_humidity;BME280_pressure;Samples;Min_cycle;Max_cycle;Signal;HPM_P1;HPM_P2
2023/09/05 00:01:50;;;;;;;;;;;;;;;-140.72;100.00;52563.34;5075397;28;19985;-68
2023/09/05 00:04:15;;;;;;;;;;;;;;;-140.72;100.00;52553.19;5072487;28;19921;-69
2023/09/05 00:06:41;;;;;;;;;;;;;;;-140.72;100.00;52557.25;5074017;28;20391;-69
2023/09/05 00:09:06;;;;;;;;;;;;;;;-140.72;100.00;52577.53;5090637;28;19927;-68
2023/09/05 00:11:32;;;;;;;;;;;;;;;-140.72;100.00;52534.94;5077054;28;19960;-69
2023/09/05 00:14:09;;;;;;;;;;;;;;;-140.72;100.00;52536.97;5075895;28;19924;-68
2023/09/05 00:16:34;;;;;;;;;;;;;;;-140.72;100.00;52532.91;5074267;28;19924;-68
2023/09/05 00:19:00;;;;;;;;;;;;;;;-140.72;100.00;52557.25;5070997;28;19920;-68
2023/09/05 00:21:27;;;;;;;;;;;;;;;-140.72;100.00;52524.78;5075861;28;20303;-68
2023/09/05 00:23:52;;;;;;;;;;;;;;;-140.72;100.00;52565.38;5064931;28;19917;-68
2023/09/05 00:26:17;;;;;;;;;;;;;;;-140.72;100.00;52536.97;5071042;28;19923;-68
2023/09/05 00:28:43;;;;;;;;;;;;;;;-140.72;100.00;52541.03;5060816;28;19924;-68
2023/09/05 00:31:11;;;;;;;;;;;;;;;-140.72;100.00;52555.22;5068041;28;19943;-68
2023/09/05 00:33:36;;;;;;;;;;;;;;;-140.72;100.00;52512.59;5067244;28;20336;-68
2023/09/05 00:36:03;;;;;;;;;;;;;;;-140.72;100.00;52539.00;5066145;28;19921;-68
2023/09/05 00:38:29;;;;;;;;;;;;;;;-140.72;100.00;52532.91;5065473;28;19923;-68
2023/09/05 00:40:54;;;;;;;;;;;;;;;-140.72;100.00;52555.22;5080749;28;20298;-69
2023/09/05 00:43:20;;;;;;;;;;;;;;;-140.72;100.00;52545.06;5086627;28;20032;-68
2023/09/05 00:45:49;;;;;;;;;;;;;;;-140.72;100.00;52549.13;5063198;28;19943;-68
2023/09/05 00:48:23;;;;;;;;;;;;;;;-140.72;100.00;52549.13;5073786;28;19916;-69
2023/09/05 00:50:49;;;;;;;;;;;;;;;-140.72;100.00;52559.28;5069999;28;19971;-69
2023/09/05 00:53:24;;;;;;;;;;;;;;;-140.72;100.00;52565.38;5076611;28;20007;-69
2023/09/05 00:55:51;;;;;;;;;;;;;;;-140.72;100.00;52543.03;5076575;28;19927;-69
2023/09/05 00:58:17;;;;;;;;;;;;;;;-140.72;100.00;52561.31;5070875;28;19920;-69
2023/09/05 01:00:42;;;;;;;;;;;;;;;-140.72;100.00;52561.31;5077511;28;20066;-69
2023/09/05 01:03:07;;;;;;;;;;;;;;;-140.72;100.00;52573.50;5075217;28;19959;-69
2023/09/05 01:05:34;;;;;;;;;;;;;;;-140.72;100.00;52545.06;5078000;28;19916;-69
2023/09/05 01:08:04;;;;;;;;;;;;;;;-140.72;100.00;52547.09;5081217;28;19927;-69
2023/09/05 01:10:48;;;;;;;;;;;;;;;-140.72;100.00;52541.03;5076364;28;19942;-70
2023/09/05 01:13:17;;;;;;;;;;;;;;;-140.72;100.00;52545.06;5064946;28;19965;-69
2023/09/05 01:15:42;;;;;;;;;;;;;;;-140.72;100.00;52563.34;5082524;28;19920;-69
2023/09/05 01:18:09;;;;;;;;;;;;;;;-140.72;100.00;52561.31;5055984;28;19924;-70
2023/09/05 01:20:40;;;;;;;;;;;;;;;-140.72;100.00;52561.31;5079546;28;20007;-69
2023/09/05 01:23:13;;;;;;;;;;;;;;;-140.72;100.00;52565.38;5060979;28;19921;-69
2023/09/05 01:25:38;;;;;;;;;;;;;;;-140.72;100.00;52547.09;5069702;28;19974;-69
2023/09/05 01:28:23;;;;;;;;;;;;;;;-140.72;100.00;52573.50;5066166;28;20371;-69
2023/09/05 01:30:49;;;;;;;;;;;;;;;-140.72;100.00;52549.13;5073914;28;19942;-69
2023/09/05 01:33:15;;;;;;;;;;;;;;;-140.72;100.00;52541.03;5056395;28;19921;-69
2023/09/05 01:35:40;;;;;;;;;;;;;;;-140.72;100.00;52587.69;5085957;28;20615;-69
2023/09/05 01:38:06;;;;;;;;;;;;;;;-140.72;100.00;52549.13;5072271;28;19946;-69
2023/09/05 01:40:31;;;;;;;;;;;;;;;-140.72;100.00;52573.50;5074090;28;20074;-69
2023/09/05 01:42:56;;;;;;;;;;;;;;;-140.72;100.00;52577.53;5075368;28;20441;-69
2023/09/05 01:45:21;;;;;;;;;;;;;;;-140.72;100.00;52573.50;5066880;28;20367;-69
2023/09/05 01:47:46;;;;;;;;;;;;;;;-140.72;100.00;52589.72;5076036;28;19928;-69
2023/09/05 01:50:12;;;;;;;;;;;;;;;-140.72;100.00;52567.41;5081761;28;20371;-69
2023/09/05 01:52:37;;;;;;;;;;;;;;;-140.72;100.00;52585.66;5076493;28;20425;-69
2023/09/05 01:55:02;;;;;;;;;;;;;;;-140.72;100.00;52565.38;5068006;28;20394;-69
2023/09/05 01:57:29;;;;;;;;;;;;;;;-140.72;100.00;52597.84;5068532;28;20276;-69
2023/09/05 01:59:54;;;;;;;;;;;;;;;-140.72;100.00;52559.28;5072909;28;19920;-69
2023/09/05 02:02:19;;;;;;;;;;;;;;;-140.72;100.00;52528.84;5073203;28;19943;-69
2023/09/05 02:04:45;;;;;;;;;;;;;;;-140.72;100.00;52549.13;5073225;28;20015;-69
2023/09/05 02:07:10;;;;;;;;;;;;;;;-140.72;100.00;52553.19;5067517;28;19924;-75
2023/09/05 02:09:35;;;;;;;;;;;;;;;-140.72;100.00;52571.47;5068249;28;19917;-68
2023/09/05 02:12:01;;;;;;;;;;;;;;;-140.72;100.00;52565.38;5065951;28;19921;-69
2023/09/05 02:14:26;;;;;;;;;;;;;;;-140.72;100.00;52555.22;5074947;28;19923;-68
2023/09/05 02:16:51;;;;;;;;;;;;;;;-140.72;100.00;52573.50;5072151;28;19942;-68
2023/09/05 02:19:26;;;;;;;;;;;;;;;-140.72;100.00;52583.63;5073935;28;20332;-69
2023/09/05 02:21:52;;;;;;;;;;;;;;;-140.72;100.00;52567.41;5068053;28;19948;-68
2023/09/05 02:24:17;;;;;;;;;;;;;;;-140.72;100.00;52575.50;5070270;28;20375;-68
2023/09/05 02:26:42;;;;;;;;;;;;;;;-140.72;100.00;52559.28;5065067;28;19920;-69
2023/09/05 02:29:08;;;;;;;;;;;;;;;-140.72;100.00;52589.72;5069157;28;19921;-68
2023/09/05 02:31:33;;;;;;;;;;;;;;;-140.72;100.00;52595.81;5085700;28;19952;-68
2023/09/05 02:33:58;;;;;;;;;;;;;;;-140.72;100.00;52593.78;5072251;28;20392;-68
2023/09/05 02:36:23;;;;;;;;;;;;;;;-140.72;100.00;52569.44;5068843;28;19917;-68
2023/09/05 02:38:48;;;;;;;;;;;;;;;-140.72;100.00;52565.38;5073835;28;19931;-68
2023/09/05 02:41:14;;;;;;;;;;;;;;;-140.72;100.00;52597.84;5067494;28;19920;-68
2023/09/05 02:43:40;;;;;;;;;;;;;;;-140.72;100.00;52614.06;5066857;28;20003;-69
2023/09/05 02:46:06;;;;;;;;;;;;;;;-140.72;100.00;52577.53;5066464;28;20374;-69
2023/09/05 02:48:32;;;;;;;;;;;;;;;-140.72;100.00;52561.31;5072671;28;20430;-68
2023/09/05 02:51:01;;;;;;;;;;;;;;;-140.72;100.00;52607.97;5054961;28;20036;-69
2023/09/05 02:53:26;;;;;;;;;;;;;;;-140.72;100.00;52587.69;5066854;28;20421;-69
2023/09/05 02:55:51;;;;;;;;;;;;;;;-140.72;100.00;52603.94;5074108;28;19949;-68
2023/09/05 02:58:16;;;;;;;;;;;;;;;-140.72;100.00;52577.53;5073107;28;19932;-68
2023/09/05 03:01:01;;;;;;;;;;;;;;;-140.72;100.00;52610.00;5060294;28;20393;-70
2023/09/05 03:03:26;;;;;;;;;;;;;;;-140.72;100.00;52575.50;5068058;28;20458;-69
2023/09/05 03:06:11;;;;;;;;;;;;;;;-140.72;100.00;52605.94;5082346;28;19967;-69
2023/09/05 03:08:37;;;;;;;;;;;;;;;-140.72;100.00;52597.84;5072462;28;19920;-69
2023/09/05 03:11:02;;;;;;;;;;;;;;;-140.72;100.00;52581.59;5068515;28;20393;-69
2023/09/05 03:13:27;;;;;;;;;;;;;;;-140.72;100.00;52571.47;5062750;28;20024;-69
2023/09/05 03:15:52;;;;;;;;;;;;;;;-140.72;100.00;52589.72;5065153;28;20370;-68
2023/09/05 03:18:18;;;;;;;;;;;;;;;-140.72;100.00;52626.25;5070718;28;19924;-69
2023/09/05 03:20:44;;;;;;;;;;;;;;;-140.72;100.00;52626.25;5070350;28;19921;-68
2023/09/05 03:23:11;;;;;;;;;;;;;;;-140.72;100.00;52569.44;5070620;28;19943;-68
2023/09/05 03:25:36;;;;;;;;;;;;;;;-140.72;100.00;52616.09;5066611;28;20011;-68
2023/09/05 03:28:01;;;;;;;;;;;;;;;-140.72;100.00;52607.97;5070213;28;19966;-68
2023/09/05 03:30:27;;;;;;;;;;;;;;;-140.72;100.00;52577.53;5060038;28;19928;-69
2023/09/05 03:32:52;;;;;;;;;;;;;;;-140.72;100.00;52622.19;5070313;28;20343;-69
2023/09/05 03:35:17;;;;;;;;;;;;;;;-140.72;100.00;52591.75;5064861;28;19925;-69
2023/09/05 03:37:42;;;;;;;;;;;;;;;-140.72;100.00;52597.84;5073176;28;19921;-68
2023/09/05 03:40:08;;;;;;;;;;;;;;;-140.72;100.00;52666.84;5067214;28;19917;-69
2023/09/05 03:42:33;;;;;;;;;;;;;;;-140.72;100.00;52620.16;5073852;28;20008;-69
2023/09/05 03:44:58;;;;;;;;;;;;;;;-140.72;100.00;52620.16;5071039;28;20290;-68
2023/09/05 03:47:24;;;;;;;;;;;;;;;-140.72;100.00;52610.00;5077095;28;20410;-69
2023/09/05 03:49:49;;;;;;;;;;;;;;;-140.72;100.00;52605.94;5071417;28;19942;-69
2023/09/05 03:52:14;;;;;;;;;;;;;;;-140.72;100.00;52585.66;5063298;28;20420;-68
2023/09/05 03:54:39;;;;;;;;;;;;;;;-140.72;100.00;52601.91;5067610;28;19924;-68
2023/09/05 03:57:07;;;;;;;;;;;;;;;-140.72;100.00;52601.91;5072880;28;19917;-68
2023/09/05 03:59:32;;;;;;;;;;;;;;;-140.72;100.00;52605.94;5071976;28;19920;-69
2023/09/05 04:01:57;;;;;;;;;;;;;;;-140.72;100.00;52636.38;5069392;28;19921;-68
2023/09/05 04:04:24;;;;;;;;;;;;;;;-140.72;100.00;52614.06;5072802;28;19948;-68
2023/09/05 04:06:49;;;;;;;;;;;;;;;-140.72;100.00;52583.63;5075280;28;19927;-68
2023/09/05 04:09:14;;;;;;;;;;;;;;;-140.72;100.00;52636.38;5070229;28;19921;-67
2023/09/05 04:11:40;;;;;;;;;;;;;;;-140.72;100.00;52624.22;5075498;28;19927;-68
2023/09/05 04:14:09;;;;;;;;;;;;;;;-140.72;100.00;52610.00;5071967;28;19927;-68
2023/09/05 04:16:34;;;;;;;;;;;;;;;-140.72;100.00;52601.91;5057885;28;19996;-68
2023/09/05 04:19:00;;;;;;;;;;;;;;;-140.72;100.00;52652.63;5063955;28;20007;-69
2023/09/05 04:21:25;;;;;;;;;;;;;;;-140.72;100.00;52636.38;5073791;28;19928;-73
2023/09/05 04:23:50;;;;;;;;;;;;;;;-140.72;100.00;52658.72;5073764;28;20432;-69
2023/09/05 04:26:25;;;;;;;;;;;;;;;-140.72;100.00;52648.56;5065342;28;19921;-69
2023/09/05 04:28:50;;;;;;;;;;;;;;;-140.72;100.00;52670.88;5074377;28;19921;-69
2023/09/05 04:31:18;;;;;;;;;;;;;;;-140.72;100.00;52652.63;5069445;28;19923;-69
2023/09/05 04:33:44;;;;;;;;;;;;;;;-140.72;100.00;52614.06;5069616;28;19963;-69
2023/09/05 04:36:09;;;;;;;;;;;;;;;-140.72;100.00;52610.00;5068211;28;20018;-69
2023/09/05 04:38:35;;;;;;;;;;;;;;;-140.72;100.00;52646.53;5073270;28;19927;-69
2023/09/05 04:41:01;;;;;;;;;;;;;;;-140.72;100.00;52610.00;5072294;28;19959;-69
2023/09/05 04:43:26;;;;;;;;;;;;;;;-140.72;100.00;52642.47;5071078;28;19921;-68
2023/09/05 04:45:55;;;;;;;;;;;;;;;-140.72;100.00;52614.06;5074066;28;19928;-69
2023/09/05 04:48:20;;;;;;;;;;;;;;;-140.72;100.00;52610.00;5063292;28;19924;-69
2023/09/05 04:50:46;;;;;;;;;;;;;;;-140.72;100.00;52607.97;5067948;28;19935;-70
2023/09/05 04:53:11;;;;;;;;;;;;;;;-140.72;100.00;52640.44;5068442;28;20003;-70
2023/09/05 04:55:36;;;;;;;;;;;;;;;-140.72;100.00;52626.25;5070587;28;19966;-69
2023/09/05 04:58:03;;;;;;;;;;;;;;;-140.72;100.00;52634.38;5067761;28;20019;-69
2023/09/05 05:00:31;;;;;;;;;;;;;;;-140.72;100.00;52654.66;5070219;28;19932;-71
2023/09/05 05:02:57;;;;;;;;;;;;;;;-140.72;100.00;52654.66;5062906;28;19920;-70
2023/09/05 05:05:22;;;;;;;;;;;;;;;-140.72;100.00;52650.59;5072858;28;19923;-71
2023/09/05 05:07:47;;;;;;;;;;;;;;;-140.72;100.00;52603.94;5066529;28;20074;-69
2023/09/05 05:10:12;;;;;;;;;;;;;;;-140.72;100.00;52630.31;5054075;28;19921;-70
2023/09/05 05:12:41;;;;;;;;;;;;;;;-140.72;100.00;52640.44;5061960;28;19978;-69
2023/09/05 05:15:06;;;;;;;;;;;;;;;-140.72;100.00;52628.28;5071374;28;20363;-70
2023/09/05 05:17:32;;;;;;;;;;;;;;;-140.72;100.00;52605.94;5085292;28;19938;-70
2023/09/05 05:19:57;;;;;;;;;;;;;;;-140.72;100.00;52650.59;5072504;28;20014;-69
2023/09/05 05:22:26;;;;;;;;;;;;;;;-140.72;100.00;52658.72;5070875;28;19936;-69
2023/09/05 05:24:51;;;;;;;;;;;;;;;-140.72;100.00;52666.84;5073542;28;19939;-70
2023/09/05 05:27:17;;;;;;;;;;;;;;;-140.72;100.00;52662.78;5076032;28;19916;-69
2023/09/05 05:29:42;;;;;;;;;;;;;;;-140.72;100.00;52605.94;5069945;28;19951;-69
2023/09/05 05:32:07;;;;;;;;;;;;;;;-140.72;100.00;52650.59;5068618;28;19917;-69
2023/09/05 05:34:33;;;;;;;;;;;;;;;-140.72;100.00;52644.50;5068731;28;19921;-69
2023/09/05 05:36:58;;;;;;;;;;;;;;;-140.72;100.00;52605.94;5074128;28;19927;-70
2023/09/05 05:39:25;;;;;;;;;;;;;;;-140.72;100.00;52640.44;5073647;28;19924;-69
2023/09/05 05:41:50;;;;;;;;;;;;;;;-140.72;100.00;52624.22;5066377;28;19920;-69
2023/09/05 05:44:16;;;;;;;;;;;;;;;-140.72;100.00;52605.94;5072954;28;19966;-69
2023/09/05 05:46:41;;;;;;;;;;;;;;;-140.72;100.00;52599.88;5070513;28;19920;-69
2023/09/05 05:49:07;;;;;;;;;;;;;;;-140.72;100.00;52640.44;5071661;28;19926;-71
2023/09/05 05:51:32;;;;;;;;;;;;;;;-140.72;100.00;52614.06;5071515;28;20355;-70
2023/09/05 05:53:58;;;;;;;;;;;;;;;-140.72;100.00;52620.16;5070411;28;19921;-68
2023/09/05 05:56:23;;;;;;;;;;;;;;;-140.72;100.00;52612.03;5075802;28;20021;-68
2023/09/05 05:58:48;;;;;;;;;;;;;;;-140.72;100.00;52628.28;5065222;28;19928;-68
2023/09/05 06:01:13;;;;;;;;;;;;;;;-140.72;100.00;52674.94;5080953;28;19920;-69
2023/09/05 06:03:39;;;;;;;;;;;;;;;-140.72;100.00;52614.06;5071284;28;19921;-68
2023/09/05 06:06:04;;;;;;;;;;;;;;;-140.72;100.00;52601.91;5065162;28;19921;-70
2023/09/05 06:08:30;;;;;;;;;;;;;;;-140.72;100.00;52630.31;5079648;28;20315;-70
2023/09/05 06:10:55;;;;;;;;;;;;;;;-140.72;100.00;52622.19;5078978;28;19917;-70
2023/09/05 06:13:21;;;;;;;;;;;;;;;-140.72;100.00;52605.94;5071519;28;20019;-69
2023/09/05 06:15:46;;;;;;;;;;;;;;;-140.72;100.00;52603.94;5070796;28;19920;-68
2023/09/05 06:18:12;;;;;;;;;;;;;;;-140.72;100.00;52563.34;5049022;28;19921;-69
2023/09/05 06:20:37;;;;;;;;;;;;;;;-140.72;100.00;52581.59;5073354;28;19920;-69
2023/09/05 06:23:03;;;;;;;;;;;;;;;-140.72;100.00;52605.94;5073731;28;20353;-69
2023/09/05 06:25:28;;;;;;;;;;;;;;;-140.72;100.00;52601.91;5075174;28;20390;-68
2023/09/05 06:27:53;;;;;;;;;;;;;;;-140.72;100.00;52573.50;5093154;28;19959;-68
2023/09/05 06:30:18;;;;;;;;;;;;;;;-140.72;100.00;52607.97;5083507;28;19967;-68
2023/09/05 06:32:44;;;;;;;;;;;;;;;-140.72;100.00;52601.91;5083335;28;19967;-68
2023/09/05 06:35:09;;;;;;;;;;;;;;;-140.72;100.00;52593.78;5091256;28;19963;-68
2023/09/05 06:37:36;;;;;;;;;;;;;;;-140.72;100.00;52575.50;5076953;28;19923;-68
2023/09/05 06:40:05;;;;;;;;;;;;;;;-140.72;100.00;52555.22;5081644;28;19921;-69
2023/09/05 06:42:30;;;;;;;;;;;;;;;-140.72;100.00;52624.22;5068137;28;19970;-68
2023/09/05 06:44:55;;;;;;;;;;;;;;;-140.72;100.00;52577.53;5074676;28;19920;-68
2023/09/05 06:47:20;;;;;;;;;;;;;;;-140.72;100.00;52601.91;5072413;28;19931;-69
2023/09/05 06:49:46;;;;;;;;;;;;;;;-140.72;100.00;52587.69;5075640;28;19916;-69
2023/09/05 06:52:11;;;;;;;;;;;;;;;-140.72;100.00;52601.91;5078703;28;19920;-68
2023/09/05 06:54:36;;;;;;;;;;;;;;;-140.72;100.00;52563.34;5076725;28;19916;-68
2023/09/05 06:57:01;;;;;;;;;;;;;;;-140.72;100.00;52553.19;5075709;28;19966;-67
2023/09/05 06:59:27;;;;;;;;;;;;;;;-140.72;100.00;52587.69;5067392;28;20386;-68
2023/09/05 07:01:52;;;;;;;;;;;;;;;-140.72;100.00;52561.31;5067964;28;19920;-68
2023/09/05 07:04:17;;;;;;;;;;;;;;;-140.72;100.00;52557.25;5092416;28;19926;-68
2023/09/05 07:06:42;;;;;;;;;;;;;;;-140.72;100.00;52567.41;5072949;28;19923;-67
2023/09/05 07:09:08;;;;;;;;;;;;;;;-140.72;100.00;52541.03;5071323;28;20374;-68
2023/09/05 07:11:33;;;;;;;;;;;;;;;-140.72;100.00;52557.25;5082161;28;19959;-68
2023/09/05 07:13:58;;;;;;;;;;;;;;;-140.72;100.00;52541.03;5075151;28;19927;-68
2023/09/05 07:16:24;;;;;;;;;;;;;;;-140.72;100.00;52567.41;5085170;28;20001;-68
2023/09/05 07:18:49;;;;;;;;;;;;;;;-140.72;100.00;52597.84;5087423;28;19916;-68
2023/09/05 07:21:15;;;;;;;;;;;;;;;-140.72;100.00;52524.78;5087670;28;20011;-69
2023/09/05 07:23:40;;;;;;;;;;;;;;;-140.72;100.00;52547.09;5069724;28;19974;-69
2023/09/05 07:26:06;;;;;;;;;;;;;;;-140.72;100.00;52534.94;5086334;28;19924;-68
2023/09/05 07:28:31;;;;;;;;;;;;;;;-140.72;100.00;52541.03;5072929;28;20007;-68
2023/09/05 07:30:56;;;;;;;;;;;;;;;-140.72;100.00;52524.78;5083919;28;20332;-68
2023/09/05 07:33:22;;;;;;;;;;;;;;;-140.72;100.00;52512.59;5071260;28;19995;-67
2023/09/05 07:35:47;;;;;;;;;;;;;;;-140.72;100.00;52514.63;5087601;28;19916;-67
2023/09/05 07:38:17;;;;;;;;;;;;;;;-140.72;100.00;52528.84;5081343;28;19924;-68
2023/09/05 07:40:42;;;;;;;;;;;;;;;-140.72;100.00;52496.38;5070560;28;19928;-68
2023/09/05 07:43:07;;;;;;;;;;;;;;;-140.72;100.00;52504.50;5079858;28;19917;-69
2023/09/05 07:45:33;;;;;;;;;;;;;;;-140.72;100.00;52490.28;5075608;28;20019;-68
2023/09/05 07:47:58;;;;;;;;;;;;;;;-140.72;100.00;52520.72;5071567;28;20322;-68
2023/09/05 07:50:23;;;;;;;;;;;;;;;-140.72;100.00;52524.78;5075114;28;19986;-68
2023/09/05 07:52:49;;;;;;;;;;;;;;;-140.72;100.00;52536.97;5072663;28;19916;-69
2023/09/05 07:55:14;;;;;;;;;;;;;;;-140.72;100.00;52494.34;5067359;28;19927;-70
2023/09/05 07:57:39;;;;;;;;;;;;;;;-140.72;100.00;52498.41;5077334;28;20347;-68
2023/09/05 08:00:08;;;;;;;;;;;;;;;-140.72;100.00;52474.06;5079072;28;20020;-68
2023/09/05 08:02:34;;;;;;;;;;;;;;;-140.72;100.00;52484.19;5074486;28;19948;-67
2023/09/05 08:04:59;;;;;;;;;;;;;;;-140.72;100.00;52510.59;5073500;28;20374;-68
2023/09/05 08:07:24;;;;;;;;;;;;;;;-140.72;100.00;52439.56;5068029;28;19927;-68
2023/09/05 08:09:50;;;;;;;;;;;;;;;-140.72;100.00;52465.94;5072392;28;19917;-67
2023/09/05 08:12:17;;;;;;;;;;;;;;;-140.72;100.00;52504.50;5086509;28;19934;-67
2023/09/05 08:14:43;;;;;;;;;;;;;;;-140.72;100.00;52476.09;5078968;28;20394;-67
2023/09/05 08:17:08;;;;;;;;;;;;;;;-140.72;100.00;52504.50;5085969;28;19989;-68
2023/09/05 08:19:33;;;;;;;;;;;;;;;-140.72;100.00;52472.03;5092091;28;20002;-67
2023/09/05 08:21:58;;;;;;;;;;;;;;;-140.72;100.00;52453.75;5090316;28;19916;-68
2023/09/05 08:24:24;;;;;;;;;;;;;;;-140.72;100.00;52476.09;5093904;28;19956;-68
2023/09/05 08:26:49;;;;;;;;;;;;;;;-140.72;100.00;52451.72;5090224;28;19917;-68
2023/09/05 08:29:14;;;;;;;;;;;;;;;-140.72;100.00;52451.72;5084095;28;19967;-68
2023/09/05 08:31:40;;;;;;;;;;;;;;;-140.72;100.00;52433.47;5086504;28;19990;-68
2023/09/05 08:34:05;;;;;;;;;;;;;;;-140.72;100.00;52411.16;5083797;28;20003;-68
2023/09/05 08:36:31;;;;;;;;;;;;;;;-140.72;100.00;52451.72;5083477;28;20333;-67
2023/09/05 08:38:57;;;;;;;;;;;;;;;-140.72;100.00;52415.22;5089187;28;19916;-68
2023/09/05 08:41:22;;;;;;;;;;;;;;;-140.72;100.00;52407.09;5081732;28;19955;-68
2023/09/05 08:43:47;;;;;;;;;;;;;;;-140.72;100.00;52413.19;5076224;28;20428;-68
2023/09/05 08:46:13;;;;;;;;;;;;;;;-140.72;100.00;52388.84;5081484;28;19947;-68
2023/09/05 08:48:38;;;;;;;;;;;;;;;-140.72;100.00;52421.28;5087793;28;19916;-68
2023/09/05 08:51:04;;;;;;;;;;;;;;;-140.72;100.00;52362.44;5075844;28;20007;-68
2023/09/05 08:53:31;;;;;;;;;;;;;;;-140.72;100.00;52332.03;5086900;28;19923;-68
2023/09/05 08:55:56;;;;;;;;;;;;;;;-140.72;100.00;52325.94;5075727;28;20007;-67
2023/09/05 08:58:22;;;;;;;;;;;;;;;-140.72;100.00;52330.00;5078070;28;20010;-67
2023/09/05 09:00:48;;;;;;;;;;;;;;;-140.72;100.00;52321.88;5068023;28;19921;-68
2023/09/05 09:03:14;;;;;;;;;;;;;;;-140.72;100.00;52269.13;5084018;28;19975;-68
2023/09/05 09:05:41;;;;;;;;;;;;;;;-140.72;100.00;52244.78;5073586;28;19962;-68
2023/09/05 09:08:07;;;;;;;;;;;;;;;-140.72;100.00;52279.25;5078436;28;20329;-67
2023/09/05 09:10:32;;;;;;;;;;;;;;;-140.72;100.00;52202.16;5087572;28;19924;-68
2023/09/05 09:13:13;;;;;;;;;;;;;;;-140.72;100.00;52177.81;5091126;28;20399;-68
2023/09/05 09:15:41;;;;;;;;;;;;;;;-140.72;100.00;52216.34;5080760;28;20551;-67
2023/09/05 09:18:09;;;;;;;;;;;;;;;-140.72;60.53;52244.78;5092942;28;20060;-67
2023/09/05 09:20:41;;;;;;;;;;;;;;;-140.72;18.81;52192.00;5084848;28;20281;-69
2023/09/05 09:23:07;;;;;;;;;;;;;;;-140.72;0.00;52171.72;5076000;28;19921;-67
2023/09/05 09:25:33;;;;;;;;;;;;;;;-140.72;0.00;52139.25;5079074;28;19920;-67
2023/09/05 09:27:58;;;;;;;;;;;;;;;-140.72;0.00;52141.28;5071877;28;19964;-68
2023/09/05 09:30:24;;;;;;;;;;;;;;;-140.72;0.00;52123.03;5090256;28;19916;-68
2023/09/05 09:32:53;;;;;;;;;;;;;;;-140.72;0.00;52086.50;5093969;28;20422;-67
2023/09/05 09:35:19;;;;;;;;;;;;;;;-140.72;0.00;52106.78;5088187;28;20011;-68
2023/09/05 09:37:46;;;;;;;;;;;;;;;-140.72;0.00;52035.78;5086716;28;20011;-68
2023/09/05 09:40:12;;;;;;;;;;;;;;;-140.72;0.00;52066.22;5086808;28;19920;-68
2023/09/05 09:42:37;;;;;;;;;;;;;;;-140.72;0.00;52033.75;5076334;28;19921;-68
2023/09/05 09:45:08;;;;;;;;;;;;;;;-140.72;0.00;52021.56;5079291;28;20301;-68
2023/09/05 09:47:34;;;;;;;;;;;;;;;-140.72;0.00;52033.75;5069819;28;19920;-68
2023/09/05 09:49:59;;;;;;;;;;;;;;;-140.72;0.00;51966.81;5077307;28;19916;-68
2023/09/05 09:52:25;;;;;;;;;;;;;;;-140.72;0.00;52005.34;5071897;28;19924;-68
2023/09/05 09:54:53;;;;;;;;;;;;;;;-140.72;0.00;51997.22;5070857;28;19920;-68
2023/09/05 09:57:30;;;;;;;;;;;;;;;-140.72;0.00;51989.13;5067430;28;20012;-68
2023/09/05 09:59:58;;;;;;;;;;;;;;;-140.72;0.00;52003.31;5081619;28;19916;-68
2023/09/05 10:02:24;;;;;;;;;;;;;;;-140.72;0.00;51985.06;5058216;28;19940;-68
2023/09/05 10:04:51;;;;;;;;;;;;;;;-140.72;0.00;52062.16;5072256;28;20285;-67
2023/09/05 10:07:18;;;;;;;;;;;;;;;-140.72;0.00;52045.94;5077076;28;19932;-67
2023/09/05 10:09:44;;;;;;;;;;;;;;;-140.72;0.00;51978.97;5079756;28;19943;-67
2023/09/05 10:12:10;;;;;;;;;;;;;;;-140.72;0.00;51972.88;5079452;28;19977;-68
2023/09/05 10:14:37;;;;;;;;;;;;;;;-140.72;0.00;51912.03;5083009;28;20340;-67
2023/09/05 10:17:03;;;;;;;;;;;;;;;-140.72;0.00;51912.03;5083896;28;19916;-67
2023/09/05 10:19:29;;;;;;;;;;;;;;;-140.72;0.00;51916.06;5072602;28;19966;-67
2023/09/05 10:21:57;;;;;;;;;;;;;;;-140.72;0.00;51883.63;5080958;28;19966;-68
2023/09/05 10:24:24;;;;;;;;;;;;;;;-140.72;0.00;51918.09;5066500;28;20295;-68
2023/09/05 10:26:50;;;;;;;;;;;;;;;-140.72;0.00;51926.22;5066173;28;20354;-68
2023/09/05 10:29:35;;;;;;;;;;;;;;;-140.72;0.00;51847.09;5081048;28;19916;-67
2023/09/05 10:32:04;;;;;;;;;;;;;;;-140.72;0.00;51816.66;5084188;28;19967;-68
2023/09/05 10:34:47;;;;;;;;;;;;;;;-140.72;0.00;51822.75;5081496;28;19916;-68
2023/09/05 10:37:13;;;;;;;;;;;;;;;-140.72;0.00;51816.66;5068546;28;19923;-67
2023/09/05 10:39:43;;;;;;;;;;;;;;;-140.72;0.00;51765.94;5077727;28;20309;-68
2023/09/05 10:42:09;;;;;;;;;;;;;;;-140.72;0.00;51770.00;5082945;28;19916;-68
2023/09/05 10:44:34;;;;;;;;;;;;;;;-140.72;0.00;51800.44;5076967;28;20351;-68
2023/09/05 10:47:19;;;;;;;;;;;;;;;-140.72;0.00;51757.81;5079909;28;19924;-68
2023/09/05 10:49:47;;;;;;;;;;;;;;;-140.72;0.00;51735.50;5074674;28;19936;-68
2023/09/05 10:52:18;;;;;;;;;;;;;;;-140.72;0.00;51733.47;5069126;28;20047;-68
2023/09/05 10:54:43;;;;;;;;;;;;;;;-140.72;0.00;51701.03;5072862;28;19917;-68
2023/09/05 10:57:27;;;;;;;;;;;;;;;-140.72;0.00;51729.44;5071949;28;19916;-68
2023/09/05 10:59:53;;;;;;;;;;;;;;;-140.72;0.00;51656.38;5073616;28;19924;-69
2023/09/05 11:02:23;;;;;;;;;;;;;;;-140.72;0.00;51648.28;5064014;28;19924;-69
2023/09/05 11:04:49;;;;;;;;;;;;;;;-140.72;0.00;51646.25;5076310;28;20330;-68
2023/09/05 11:07:17;;;;;;;;;;;;;;;-140.72;0.00;51632.03;5070542;28;20058;-69
2023/09/05 11:09:44;;;;;;;;;;;;;;;-140.72;0.00;51658.41;5081881;28;19916;-69
2023/09/05 11:12:10;;;;;;;;;;;;;;;-140.72;0.00;51701.03;5077493;28;19970;-68
2023/09/05 11:14:36;;;;;;;;;;;;;;;-140.72;0.00;51676.69;5091357;28;19916;-68
2023/09/05 11:17:01;;;;;;;;;;;;;;;-140.72;0.00;51652.34;5087158;28;19939;-68
2023/09/05 11:19:33;;;;;;;;;;;;;;;-140.72;0.00;51603.63;5082457;28;19916;-68
2023/09/05 11:22:34;;;;;;;;;;;;;;;-140.72;0.00;51601.63;5079770;28;19924;-68
2023/09/05 11:25:01;;;;;;;;;;;;;;;-140.72;0.00;51548.88;5068124;28;19916;-68
2023/09/05 11:27:28;;;;;;;;;;;;;;;-140.72;0.00;51550.91;5062072;28;19949;-68
2023/09/05 11:29:55;;;;;;;;;;;;;;;-140.72;0.00;51494.09;5072294;28;20379;-68
2023/09/05 11:32:26;;;;;;;;;;;;;;;-140.72;0.00;51522.50;5082732;28;19982;-68
2023/09/05 11:34:53;;;;;;;;;;;;;;;-140.72;0.00;51494.09;5065615;28;19956;-68
2023/09/05 11:37:19;;;;;;;;;;;;;;;-140.72;0.00;51502.22;5078617;28;20400;-68
2023/09/05 11:39:46;;;;;;;;;;;;;;;-140.72;0.00;51524.53;5062498;28;19916;-68
2023/09/05 11:42:15;;;;;;;;;;;;;;;-140.72;0.00;51473.81;5079265;28;19926;-68
2023/09/05 11:44:41;;;;;;;;;;;;;;;-140.72;0.00;51429.19;5086189;28;20438;-68
2023/09/05 11:47:06;;;;;;;;;;;;;;;-140.72;0.00;51421.06;5078039;28;20041;-68
2023/09/05 11:49:35;;;;;;;;;;;;;;;-140.72;0.00;51414.97;5066071;28;19963;-68
2023/09/05 11:52:01;;;;;;;;;;;;;;;-140.72;0.00;51380.50;5077103;28;19923;-68
2023/09/05 11:54:30;;;;;;;;;;;;;;;-140.72;0.00;51419.03;5076366;28;19927;-68
2023/09/05 11:56:56;;;;;;;;;;;;;;;-140.72;0.00;51506.25;5083066;28;19927;-68
2023/09/05 11:59:23;;;;;;;;;;;;;;;-140.72;0.00;51449.47;5072311;28;19917;-68
2023/09/05 12:01:48;;;;;;;;;;;;;;;-140.72;0.00;51370.34;5085339;28;19920;-68
2023/09/05 12:04:13;;;;;;;;;;;;;;;-140.72;0.00;51400.78;5071461;28;19916;-68
2023/09/05 12:06:39;;;;;;;;;;;;;;;-140.72;0.00;51398.75;5078711;28;19917;-68
2023/09/05 12:09:07;;;;;;;;;;;;;;;-140.72;0.00;51380.50;5075932;28;19916;-69
2023/09/05 12:11:33;;;;;;;;;;;;;;;-140.72;0.00;51352.09;5084314;28;19964;-69
2023/09/05 12:13:58;;;;;;;;;;;;;;;-140.72;0.00;51390.63;5085062;28;19948;-69
2023/09/05 12:16:23;;;;;;;;;;;;;;;-140.72;0.00;51327.75;5083015;28;19920;-69
2023/09/05 12:18:57;;;;;;;;;;;;;;;-140.72;0.00;51319.63;5088988;28;20007;-68
2023/09/05 12:21:22;;;;;;;;;;;;;;;-140.72;0.00;51388.59;5093088;28;19923;-68